createdAt,value
2022-12-19T00:01:32.449Z,102161.20
2022-12-19T00:04:07.520Z,102158.23
2022-12-19T00:06:39.515Z,102153.35
2022-12-19T00:09:13.033Z,102149.92
2022-12-19T00:11:42.315Z,102150.91
2022-12-19T00:14:11.858Z,102151.64
2022-12-19T00:16:40.400Z,102149.30
2022-12-19T00:19:10.871Z,102146.88
2022-12-19T00:21:39.839Z,102141.46
2022-12-19T00:24:20.597Z,102138.00
2022-12-19T00:26:50.397Z,102137.90
2022-12-19T00:29:19.110Z,102138.30
2022-12-19T00:31:47.630Z,102132.30
2022-12-19T00:34:16.443Z,102132.75
2022-12-19T00:36:45.018Z,102126.58
2022-12-19T00:39:13.555Z,102121.74
2022-12-19T00:41:42.647Z,102115.26
2022-12-19T00:44:17.237Z,102107.55
2022-12-19T00:46:47.412Z,102102.90
2022-12-19T00:49:21.884Z,102109.71
2022-12-19T00:51:50.564Z,102109.19
2022-12-19T00:54:19.088Z,102109.25
2022-12-19T00:56:48.197Z,102109.63
2022-12-19T00:59:20.085Z,102110.67
2022-12-19T01:17:07.463Z,102095.64
2022-12-19T01:19:41.921Z,102093.98
2022-12-19T01:22:13.687Z,102092.30
2022-12-19T01:24:42.472Z,102084.59
2022-12-19T01:27:11.369Z,102077.14
2022-12-19T01:29:52.441Z,102078.23
2022-12-19T01:32:23.402Z,102077.48
2022-12-19T01:34:53.100Z,102073.97
2022-12-19T01:37:21.478Z,102071.95
2022-12-19T01:39:49.763Z,102072.14
2022-12-19T01:42:23.623Z,102068.06
2022-12-19T01:45:19.340Z,102065.37
2022-12-19T01:47:53.682Z,102060.10
2022-12-19T01:51:02.921Z,102062.52
2022-12-19T01:53:48.298Z,102056.70
2022-12-19T01:56:24.876Z,102056.67
2022-12-19T01:59:05.712Z,102057.77
2022-12-19T02:01:40.904Z,102055.95
2022-12-19T02:04:29.417Z,102054.45
2022-12-19T02:07:15.595Z,102055.00
2022-12-19T02:09:46.913Z,102057.98
2022-12-19T02:12:15.573Z,102054.30
2022-12-19T02:14:44.043Z,102047.70
2022-12-19T02:17:34.337Z,102038.03
2022-12-19T02:20:30.186Z,102041.64
2022-12-19T02:23:05.048Z,102034.48
2022-12-19T02:25:50.056Z,102034.16
2022-12-19T02:28:32.945Z,102033.13
2022-12-19T02:31:30.813Z,102032.94
2022-12-19T02:34:15.674Z,102028.48
2022-12-19T02:37:20.909Z,102024.80
2022-12-19T02:40:14.965Z,102022.55
2022-12-19T02:42:46.671Z,102015.28
2022-12-19T02:45:24.713Z,102014.04
2022-12-19T02:48:04.479Z,102013.59
2022-12-19T02:50:39.102Z,102010.35
2022-12-19T02:53:09.484Z,102002.63
2022-12-19T02:56:00.137Z,101998.63
2022-12-19T02:58:57.017Z,101992.30
2022-12-19T03:02:18.896Z,101991.43
2022-12-19T03:05:16.817Z,101978.45
2022-12-19T03:08:06.478Z,101967.50
2022-12-19T03:10:47.301Z,101957.61
2022-12-19T03:13:21.661Z,101952.88
2022-12-19T03:15:51.363Z,101955.67
2022-12-19T03:18:20.230Z,101957.24
2022-12-19T03:21:11.007Z,101961.55
2022-12-19T03:23:40.896Z,101966.21
2022-12-19T03:26:19.926Z,101967.40
2022-12-19T03:28:52.766Z,101962.98
2022-12-19T03:31:25.427Z,101958.30
2022-12-19T03:34:03.303Z,101947.65
2022-12-19T03:36:38.986Z,101946.70
2022-12-19T03:39:10.222Z,101947.66
2022-12-19T03:41:59.602Z,101948.44
2022-12-19T03:44:33.655Z,101955.95
2022-12-19T03:47:11.850Z,101952.57
2022-12-19T03:49:40.663Z,101950.57
2022-12-19T03:52:25.368Z,101947.70
2022-12-19T03:55:18.243Z,101946.48
2022-12-19T03:57:59.356Z,101943.52
2022-12-19T04:00:29.972Z,101943.56
2022-12-19T04:02:59.718Z,101940.05
2022-12-19T04:05:29.118Z,101934.61
2022-12-19T04:08:04.423Z,101932.82
2022-12-19T04:10:38.572Z,101937.55
2022-12-19T04:13:13.216Z,101940.37
2022-12-19T04:16:01.442Z,101931.67
2022-12-19T04:18:31.582Z,101924.22
2022-12-19T04:21:13.203Z,101920.13
2022-12-19T04:23:47.995Z,101915.80
2022-12-19T04:26:18.848Z,101916.29
2022-12-19T04:28:52.349Z,101915.22
2022-12-19T04:31:22.176Z,101909.69
2022-12-19T04:33:50.520Z,101905.89
2022-12-19T04:36:19.022Z,101907.20
2022-12-19T04:38:47.799Z,101904.77
2022-12-19T04:41:16.061Z,101901.40
2022-12-19T04:43:44.506Z,101894.32
2022-12-19T04:46:13.182Z,101898.08
2022-12-19T04:48:41.509Z,101896.40
2022-12-19T04:51:10.193Z,101896.27
2022-12-19T04:53:38.561Z,101891.64
2022-12-19T04:56:07.672Z,101891.59
2022-12-19T04:58:36.192Z,101884.77
2022-12-19T05:01:06.845Z,101881.84
2022-12-19T05:03:36.610Z,101880.55
2022-12-19T05:06:05.280Z,101880.30
2022-12-19T05:08:34.996Z,101882.20
2022-12-19T05:11:05.175Z,101879.98
2022-12-19T05:13:34.011Z,101880.43
2022-12-19T05:16:05.598Z,101876.39
2022-12-19T05:18:34.477Z,101876.86
2022-12-19T05:21:03.344Z,101875.95
2022-12-19T05:23:32.215Z,101871.74
2022-12-19T05:26:02.040Z,101862.62
2022-12-19T05:28:30.970Z,101866.14
2022-12-19T05:31:08.847Z,101861.83
2022-12-19T05:33:38.454Z,101854.16
2022-12-19T05:36:08.555Z,101848.14
2022-12-19T05:38:37.494Z,101848.90
2022-12-19T05:41:17.953Z,101846.84
2022-12-19T05:43:50.344Z,101845.64
2022-12-19T05:46:19.434Z,101832.35
2022-12-19T05:48:48.310Z,101820.06
2022-12-19T05:51:16.995Z,101820.66
2022-12-19T05:53:45.369Z,101810.55
2022-12-19T05:56:17.093Z,101813.73
2022-12-19T05:58:46.635Z,101809.55
2022-12-19T06:01:18.986Z,101808.55
2022-12-19T06:03:48.543Z,101808.73
2022-12-19T06:06:20.208Z,101804.36
2022-12-19T06:08:48.612Z,101798.49
2022-12-19T06:11:16.960Z,101796.05
2022-12-19T06:13:45.219Z,101796.66
2022-12-19T06:16:15.781Z,101784.31
2022-12-19T06:18:45.843Z,101778.58
2022-12-19T06:21:20.500Z,101775.12
2022-12-19T06:23:49.215Z,101773.80
2022-12-19T06:26:22.694Z,101776.35
2022-12-19T06:28:53.330Z,101764.70
2022-12-19T06:31:23.608Z,101770.96
2022-12-19T06:33:54.998Z,101763.59
2022-12-19T06:36:26.252Z,101762.98
2022-12-19T06:38:58.113Z,101769.59
2022-12-19T06:41:46.539Z,101768.52
2022-12-19T06:44:16.809Z,101767.73
2022-12-19T06:46:45.372Z,101760.46
2022-12-19T06:49:13.746Z,101760.02
2022-12-19T06:51:42.876Z,101759.68
2022-12-19T06:54:12.567Z,101763.65
2022-12-19T06:56:42.902Z,101764.75
2022-12-19T06:59:14.420Z,101767.02
2022-12-19T07:02:02.918Z,101763.39
2022-12-19T07:04:40.473Z,101771.77
2022-12-19T07:07:09.064Z,101761.77
2022-12-19T07:09:37.699Z,101764.09
2022-12-19T07:12:06.212Z,101756.27
2022-12-19T07:14:34.632Z,101755.41
2022-12-19T07:17:04.021Z,101758.86
2022-12-19T07:19:33.467Z,101748.80
2022-12-19T07:22:03.733Z,101745.49
2022-12-19T07:24:32.967Z,101743.81
2022-12-19T07:27:01.332Z,101735.06
2022-12-19T07:29:29.719Z,101730.77
2022-12-19T07:31:58.136Z,101738.54
2022-12-19T07:34:26.556Z,101731.32
2022-12-19T07:36:55.117Z,101736.07
2022-12-19T07:39:23.446Z,101737.56
2022-12-19T07:41:51.793Z,101732.08
2022-12-19T07:44:28.428Z,101734.34
2022-12-19T07:46:56.807Z,101717.69
2022-12-19T07:49:25.096Z,101715.86
2022-12-19T07:51:53.667Z,101714.65
2022-12-19T07:54:22.056Z,101717.22
2022-12-19T07:56:51.109Z,101708.77
2022-12-19T07:59:21.388Z,101707.35
2022-12-19T08:01:52.917Z,101700.45
2022-12-19T08:04:21.432Z,101699.91
2022-12-19T08:06:49.772Z,101700.60
2022-12-19T08:09:18.345Z,101697.81
2022-12-19T08:11:46.925Z,101700.34
2022-12-19T08:14:15.290Z,101690.95
2022-12-19T08:17:11.390Z,101699.65
2022-12-19T08:19:31.956Z,101697.55
2022-12-19T08:22:00.293Z,101692.17
2022-12-19T08:24:28.611Z,101688.53
2022-12-19T08:26:57.451Z,101691.74
2022-12-19T08:29:25.791Z,101688.79
2022-12-19T08:31:54.360Z,101677.48
2022-12-19T08:34:22.569Z,101665.08
2022-12-19T08:36:50.950Z,101662.40
2022-12-19T08:39:19.259Z,101651.76
2022-12-19T08:41:47.774Z,101663.67
2022-12-19T08:44:16.604Z,101661.86
2022-12-19T08:46:50.043Z,101650.90
2022-12-19T08:49:19.706Z,101650.99
2022-12-19T08:51:48.031Z,101655.31
2022-12-19T08:54:16.442Z,101638.36
2022-12-19T08:56:46.253Z,101629.61
2022-12-19T08:59:30.563Z,101627.34
2022-12-19T09:02:02.236Z,101613.89
2022-12-19T09:06:00.542Z,101605.39
2022-12-19T09:07:19.470Z,101603.80
2022-12-19T09:09:47.775Z,101602.48
2022-12-19T09:12:16.925Z,101592.69
2022-12-19T09:14:45.515Z,101592.20
2022-12-19T09:17:14.052Z,101588.15
2022-12-19T09:19:45.557Z,101579.52
2022-12-19T09:22:16.963Z,101574.58
2022-12-19T09:24:45.822Z,101569.98
2022-12-19T09:27:14.740Z,101561.80
2022-12-19T09:29:44.111Z,101554.07
2022-12-19T09:32:12.637Z,101549.35
2022-12-19T09:34:40.986Z,101545.55
2022-12-19T09:37:16.939Z,101542.73
2022-12-19T09:39:47.568Z,101537.85
2022-12-19T09:42:48.539Z,101528.42
2022-12-19T09:45:37.561Z,101525.82
2022-12-19T09:48:23.909Z,101523.26
2022-12-19T09:51:09.560Z,101525.27
2022-12-19T09:53:38.411Z,101521.62
2022-12-19T09:56:14.799Z,101513.45
2022-12-19T09:59:28.492Z,101507.30
2022-12-19T10:02:39.149Z,101496.77
2022-12-19T10:05:52.319Z,101499.91
2022-12-19T10:08:45.359Z,101495.47
2022-12-19T10:12:39.583Z,101495.27
2022-12-19T10:14:48.997Z,101480.23
2022-12-19T10:17:41.950Z,101469.59
2022-12-19T10:20:49.857Z,101458.77
2022-12-19T10:23:50.412Z,101459.69
2022-12-19T10:26:21.534Z,101460.61
2022-12-19T10:29:13.515Z,101457.00
2022-12-19T10:32:17.805Z,101455.83
2022-12-19T10:34:48.237Z,101454.33
2022-12-19T10:37:31.435Z,101451.64
2022-12-19T10:40:34.901Z,101448.60
2022-12-19T10:43:18.230Z,101437.74
2022-12-19T10:45:58.570Z,101430.30
2022-12-19T10:48:30.734Z,101420.03
2022-12-19T10:51:06.484Z,101418.45
2022-12-19T10:53:35.578Z,101408.55
2022-12-19T10:56:23.270Z,101407.02
2022-12-19T10:58:57.556Z,101386.23
2022-12-19T11:01:27.555Z,101381.63
2022-12-19T11:04:34.862Z,101379.41
2022-12-19T11:07:03.936Z,101372.92
2022-12-19T11:09:45.998Z,101367.43
2022-12-19T11:16:15.360Z,101362.39
2022-12-19T11:20:51.999Z,101357.13
2022-12-19T11:29:14.654Z,101358.27
2022-12-19T11:29:37.271Z,101345.91
2022-12-19T11:30:37.380Z,101330.22
2022-12-19T11:30:42.812Z,101323.59
2022-12-19T11:32:44.480Z,101312.70
2022-12-19T11:35:24.826Z,101312.84
2022-12-19T11:37:58.345Z,101308.48
2022-12-19T11:40:49.856Z,101302.98
2022-12-19T11:43:46.914Z,101299.36
2022-12-19T11:46:45.108Z,101299.80
2022-12-19T11:49:38.855Z,101293.85
2022-12-19T11:52:29.626Z,101285.42
2022-12-19T11:55:08.254Z,101276.92
2022-12-19T11:57:39.039Z,101262.00
2022-12-19T12:00:13.227Z,101257.07
2022-12-19T12:03:12.620Z,101251.67
2022-12-19T12:05:48.539Z,101234.98
2022-12-19T12:12:00.383Z,101236.42
2022-12-19T12:15:00.028Z,101236.90
2022-12-19T12:27:11.796Z,101222.38
2022-12-19T12:31:00.177Z,101224.59
2022-12-19T12:31:26.999Z,101210.50
2022-12-19T12:31:50.450Z,101190.34
2022-12-19T12:32:02.520Z,101186.49
2022-12-19T12:32:03.003Z,101200.00
2022-12-19T12:35:52.125Z,101180.42
2022-12-19T12:39:36.678Z,101166.00
2022-12-19T12:42:20.198Z,101162.10
2022-12-19T12:44:52.914Z,101159.10
2022-12-19T12:47:26.272Z,101158.66
2022-12-19T12:50:00.882Z,101157.57
2022-12-19T12:52:40.609Z,101152.59
2022-12-19T12:55:40.342Z,101151.05
2022-12-19T12:58:46.500Z,101135.57
2022-12-19T13:01:30.423Z,101136.70
2022-12-19T13:04:10.999Z,101135.94
2022-12-19T13:06:52.077Z,101136.63
2022-12-19T13:09:20.567Z,101128.61
2022-12-19T13:12:13.033Z,101118.51
2022-12-19T13:14:44.690Z,101118.64
2022-12-19T13:17:20.661Z,101123.23
2022-12-19T13:20:05.603Z,101121.83
2022-12-19T13:22:33.900Z,101120.64
2022-12-19T13:25:02.255Z,101120.33
2022-12-19T13:27:37.435Z,101120.48
2022-12-19T13:30:14.973Z,101118.94
2022-12-19T13:32:43.604Z,101113.67
2022-12-19T13:37:07.553Z,101101.89
2022-12-19T13:39:57.818Z,101103.60
2022-12-19T13:41:48.598Z,101108.52
2022-12-19T13:44:22.447Z,101101.00
2022-12-19T13:46:51.073Z,101103.23
2022-12-19T13:49:30.536Z,101099.53
2022-12-19T13:52:04.857Z,101098.79
2022-12-19T13:54:51.917Z,101099.98
2022-12-19T13:57:30.793Z,101107.08
2022-12-19T14:00:06.708Z,101098.77
2022-12-19T14:02:46.358Z,101084.56
2022-12-19T14:06:15.171Z,101077.56
2022-12-19T14:08:25.092Z,101075.58
2022-12-19T14:11:38.340Z,101074.91
2022-12-19T14:14:17.441Z,101059.27
2022-12-19T14:16:47.819Z,101060.36
2022-12-19T14:19:25.144Z,101047.92
2022-12-19T14:22:04.563Z,101052.10
2022-12-19T14:24:41.706Z,101038.41
2022-12-19T14:28:18.229Z,101034.45
2022-12-19T14:30:27.920Z,101030.58
2022-12-19T14:33:46.640Z,101036.02
2022-12-19T14:36:06.506Z,101040.48
2022-12-19T14:39:22.536Z,101038.67
2022-12-19T14:42:02.493Z,101044.35
2022-12-19T14:52:08.397Z,101035.11
2022-12-19T14:54:03.494Z,101031.69
2022-12-19T14:54:30.696Z,101034.83
2022-12-19T14:54:40.482Z,101025.56
2022-12-19T14:59:42.345Z,101018.05
2022-12-19T15:26:28.915Z,100986.33
2022-12-19T15:28:58.337Z,100977.97
2022-12-19T15:31:40.440Z,100979.21
2022-12-19T15:34:48.293Z,100982.75
2022-12-19T15:37:15.002Z,100986.77
2022-12-19T15:39:44.670Z,100985.88
2022-12-19T15:42:23.047Z,100986.55
2022-12-19T15:44:53.868Z,100982.63
2022-12-19T15:47:30.001Z,100979.90
2022-12-19T15:50:02.659Z,100983.30
2022-12-19T15:52:30.997Z,100982.59
2022-12-19T15:54:59.257Z,100990.90
2022-12-19T15:57:36.438Z,100988.20
2022-12-19T16:00:17.167Z,100984.46
2022-12-19T16:05:36.203Z,100971.92
2022-12-19T16:08:12.176Z,100969.91
2022-12-19T16:10:41.912Z,100961.11
2022-12-19T16:13:24.394Z,100958.89
2022-12-19T16:15:55.096Z,100955.83
2022-12-19T16:18:23.735Z,100955.17
2022-12-19T16:20:52.389Z,100944.44
2022-12-19T16:23:22.439Z,100951.73
2022-12-19T16:25:52.082Z,100959.45
2022-12-19T16:28:23.917Z,100955.03
2022-12-19T16:30:52.785Z,100947.90
2022-12-19T16:33:24.048Z,100945.52
2022-12-19T16:36:04.077Z,100954.03
2022-12-19T16:38:33.645Z,100941.44
2022-12-19T16:41:02.793Z,100940.79
2022-12-19T16:43:40.939Z,100942.73
2022-12-19T16:46:17.693Z,100939.93
2022-12-19T16:48:50.010Z,100934.91
2022-12-19T16:51:24.822Z,100928.55
2022-12-19T16:53:57.679Z,100922.53
2022-12-19T16:56:25.844Z,100923.57
2022-12-19T16:58:56.495Z,100917.91
2022-12-19T17:01:24.881Z,100911.73
2022-12-19T17:03:54.522Z,100911.21
2022-12-19T17:06:23.946Z,100915.69
2022-12-19T17:08:54.033Z,100915.80
2022-12-19T17:11:24.908Z,100917.41
2022-12-19T17:14:00.608Z,100924.09
2022-12-19T17:16:31.185Z,100910.71
2022-12-19T17:18:59.984Z,100897.30
2022-12-19T17:21:28.523Z,100888.20
2022-12-19T17:23:56.988Z,100885.97
2022-12-19T17:26:25.336Z,100879.89
2022-12-19T17:28:53.660Z,100872.85
2022-12-19T17:31:26.450Z,100873.51
2022-12-19T17:33:57.937Z,100868.60
2022-12-19T17:36:36.757Z,100862.87
2022-12-19T17:39:23.169Z,100863.72
2022-12-19T17:41:52.980Z,100851.05
2022-12-19T17:44:21.339Z,100847.77
2022-12-19T17:46:49.937Z,100851.85
2022-12-19T17:49:27.120Z,100849.45
2022-12-19T17:51:56.249Z,100842.61
2022-12-19T17:54:25.744Z,100835.15
2022-12-19T17:56:54.098Z,100836.67
2022-12-19T17:59:22.449Z,100838.71
2022-12-19T18:01:51.084Z,100830.16
2022-12-19T18:04:21.790Z,100827.11
2022-12-19T18:06:50.801Z,100825.58
2022-12-19T18:09:25.353Z,100826.44
2022-12-19T18:11:53.722Z,100819.81
2022-12-19T18:14:22.063Z,100814.52
2022-12-19T18:16:50.951Z,100809.84
2022-12-19T18:19:21.851Z,100807.25
2022-12-19T18:21:50.585Z,100801.85
2022-12-19T18:24:18.924Z,100799.64
2022-12-19T18:26:47.262Z,100793.48
2022-12-19T18:29:16.429Z,100786.00
2022-12-19T18:31:50.577Z,100792.20
2022-12-19T18:34:23.239Z,100786.64
2022-12-19T18:36:52.610Z,100772.77
2022-12-19T18:39:24.945Z,100779.40
2022-12-19T18:41:53.766Z,100768.27
2022-12-19T18:44:23.221Z,100761.84
2022-12-19T18:46:53.008Z,100756.68
2022-12-19T18:49:22.997Z,100752.68
2022-12-19T18:51:51.455Z,100747.48
2022-12-19T18:54:22.326Z,100741.36
2022-12-19T18:56:51.948Z,100727.58
2022-12-19T18:59:20.591Z,100721.50
2022-12-19T19:01:49.133Z,100714.00
2022-12-19T19:04:18.339Z,100704.15
2022-12-19T19:06:51.413Z,100707.94
2022-12-19T19:09:21.658Z,100703.68
2022-12-19T19:12:02.447Z,100700.35
2022-12-19T19:14:30.905Z,100704.84
2022-12-19T19:16:59.245Z,100695.96
2022-12-19T19:19:27.706Z,100688.94
2022-12-19T19:21:56.198Z,100686.32
2022-12-19T19:24:24.585Z,100682.35
2022-12-19T19:26:53.052Z,100686.10
2022-12-19T19:29:21.826Z,100692.11
2022-12-19T19:31:51.993Z,100687.67
2022-12-19T19:34:31.720Z,100689.59
2022-12-19T19:37:03.722Z,100684.02
2022-12-19T19:39:34.194Z,100688.23
2022-12-19T19:42:02.964Z,100680.98
2022-12-19T19:44:32.550Z,100672.98
2022-12-19T19:47:01.015Z,100660.65
2022-12-19T19:49:29.416Z,100655.23
2022-12-19T19:52:02.564Z,100664.06
2022-12-19T19:54:32.336Z,100666.46
2022-12-19T19:57:00.775Z,100673.68
2022-12-19T19:59:31.434Z,100665.23
2022-12-19T20:02:00.484Z,100653.58
2022-12-19T20:04:29.313Z,100646.81
2022-12-19T20:06:57.623Z,100647.58
2022-12-19T20:09:26.187Z,100637.55
2022-12-19T20:11:56.572Z,100631.60
2022-12-19T20:14:26.988Z,100631.26
2022-12-19T20:16:55.435Z,100630.43
2022-12-19T20:19:23.744Z,100634.44
2022-12-19T20:21:52.478Z,100633.14
2022-12-19T20:24:20.955Z,100622.98
2022-12-19T20:26:49.417Z,100621.14
2022-12-19T20:29:17.809Z,100617.39
2022-12-19T20:31:46.329Z,100605.42
2022-12-19T20:34:14.799Z,100602.05
2022-12-19T20:36:43.083Z,100596.60
2022-12-19T20:39:12.574Z,100595.42
2022-12-19T20:41:40.956Z,100593.53
2022-12-19T20:44:09.453Z,100590.98
2022-12-19T20:46:38.140Z,100585.10
2022-12-19T20:49:06.565Z,100581.87
2022-12-19T20:51:34.904Z,100577.77
2022-12-19T20:54:04.876Z,100568.88
2022-12-19T20:56:33.239Z,100568.86
2022-12-19T20:59:01.790Z,100567.52
2022-12-19T21:01:31.671Z,100568.07
2022-12-19T21:04:00.296Z,100574.23
2022-12-19T21:06:29.051Z,100576.63
2022-12-19T21:08:58.015Z,100566.45
2022-12-19T21:11:27.863Z,100564.60
2022-12-19T21:13:56.146Z,100568.38
2022-12-19T21:16:24.851Z,100558.86
2022-12-19T21:18:53.339Z,100554.94
2022-12-19T21:21:26.129Z,100551.71
2022-12-19T21:23:55.260Z,100551.88
2022-12-19T21:26:26.029Z,100547.30
2022-12-19T21:28:58.083Z,100546.64
2022-12-19T21:31:30.030Z,100541.09
2022-12-19T21:34:00.564Z,100540.77
2022-12-19T21:36:30.797Z,100537.22
2022-12-19T21:39:02.237Z,100536.20
2022-12-19T21:41:31.566Z,100528.27
2022-12-19T21:44:00.707Z,100524.75
2022-12-19T21:46:33.212Z,100526.36
2022-12-19T21:49:03.317Z,100518.84
2022-12-19T21:51:32.500Z,100514.78
2022-12-19T21:54:03.690Z,100513.97
2022-12-19T21:56:35.009Z,100514.18
2022-12-19T21:59:06.997Z,100508.75
2022-12-19T22:01:36.043Z,100499.77
2022-12-19T22:04:07.886Z,100490.44
2022-12-19T22:06:38.024Z,100485.80
2022-12-19T22:09:09.180Z,100482.45
2022-12-19T22:11:38.043Z,100479.94
2022-12-19T22:14:07.314Z,100475.86
2022-12-19T22:16:36.326Z,100470.80
2022-12-19T22:19:05.284Z,100466.60
2022-12-19T22:21:34.037Z,100463.95
2022-12-19T22:24:03.774Z,100466.59
2022-12-19T22:26:33.170Z,100466.67
2022-12-19T22:29:01.517Z,100459.88
2022-12-19T22:31:31.918Z,100453.40
2022-12-19T22:34:12.750Z,100450.73
2022-12-19T22:36:42.935Z,100442.09
2022-12-19T22:39:14.416Z,100439.86
2022-12-19T22:41:43.267Z,100437.83
2022-12-19T22:44:23.699Z,100430.65
2022-12-19T22:46:52.716Z,100429.48
2022-12-19T22:49:21.317Z,100428.98
2022-12-19T22:51:50.214Z,100426.95
2022-12-19T22:54:18.633Z,100426.99
2022-12-19T22:56:50.761Z,100423.64
2022-12-19T22:59:19.413Z,100415.66
2022-12-19T23:01:48.092Z,100415.00
2022-12-19T23:04:17.616Z,100417.06
2022-12-19T23:06:46.477Z,100413.29
2022-12-19T23:09:16.994Z,100417.06
2022-12-19T23:11:48.809Z,100415.91
2022-12-19T23:14:19.176Z,100412.32
2022-12-19T23:16:48.469Z,100414.38
2022-12-19T23:19:17.642Z,100415.94
2022-12-19T23:21:46.234Z,100411.50
2022-12-19T23:24:15.242Z,100405.71
2022-12-19T23:26:43.723Z,100407.28
2022-12-19T23:29:15.007Z,100399.95
2022-12-19T23:31:45.377Z,100395.35
2022-12-19T23:34:15.496Z,100393.30
2022-12-19T23:39:33.346Z,100389.58
2022-12-19T23:42:01.672Z,100384.32
2022-12-19T23:44:30.274Z,100381.97
2022-12-19T23:47:02.912Z,100381.82
2022-12-19T23:49:33.822Z,100386.31
2022-12-19T23:52:02.569Z,100378.42
2022-12-19T23:54:31.391Z,100370.89
2022-12-19T23:56:59.688Z,100369.68
2022-12-19T23:59:28.075Z,100366.61
